Time;durP1;ratioP1;P1;durP2;ratioP2;P2;SDS_P1;SDS_P2;PMS_P1;PMS_P2;Temp;Humidity;BMP_temperature;BMP_pressure;BME280_temperature;BME280_humidity;BME280_pressure;Samples;Min_cycle;Max_cycle;Signal;HPM_P1;HPM_P2
2022/03/11 00:00:54;;;;;;;16.63;11.55;;;5.50;99.90;;;;;;5039836;28;20525;-63
2022/03/11 00:03:20;;;;;;;16.00;11.05;;;5.40;99.90;;;;;;5019307;28;20155;-63
2022/03/11 00:05:46;;;;;;;15.77;11.23;;;5.40;99.90;;;;;;5028581;28;20045;-63
2022/03/11 00:08:12;;;;;;;14.63;11.00;;;5.30;99.90;;;;;;5037822;28;20164;-63
2022/03/11 00:10:38;;;;;;;20.15;11.00;;;5.40;99.90;;;;;;5031479;28;20057;-63
2022/03/11 00:13:04;;;;;;;15.70;10.85;;;5.30;99.90;;;;;;5038933;28;20093;-63
2022/03/11 00:15:29;;;;;;;15.18;11.13;;;5.20;99.90;;;;;;5013347;28;20502;-63
2022/03/11 00:17:55;;;;;;;14.60;10.63;;;5.30;99.90;;;;;;5000358;28;20604;-63
2022/03/11 00:20:21;;;;;;;16.48;10.82;;;5.20;99.90;;;;;;5020205;28;20085;-63
2022/03/11 00:22:51;;;;;;;14.57;10.77;;;5.20;99.90;;;;;;5011402;28;20177;-63
2022/03/11 00:25:17;;;;;;;15.30;10.55;;;5.30;99.90;;;;;;5029726;28;20489;-63
2022/03/11 00:27:44;;;;;;;18.02;10.95;;;5.20;99.90;;;;;;5014778;28;20060;-62
2022/03/11 00:30:10;;;;;;;16.10;10.50;;;5.20;99.90;;;;;;5016920;28;20092;-63
2022/03/11 00:32:36;;;;;;;16.50;10.63;;;5.20;99.90;;;;;;5013642;28;20050;-63
2022/03/11 00:35:01;;;;;;;15.23;10.32;;;5.10;99.90;;;;;;5032120;28;20086;-62
2022/03/11 00:37:27;;;;;;;16.25;10.32;;;5.20;99.90;;;;;;5037096;28;20082;-63
2022/03/11 00:39:53;;;;;;;15.63;9.43;;;5.20;99.90;;;;;;5011879;28;20426;-63
2022/03/11 00:42:18;;;;;;;13.00;9.18;;;5.10;99.90;;;;;;5011234;28;20053;-63
2022/03/11 00:44:44;;;;;;;13.93;9.68;;;5.20;99.90;;;;;;5013240;28;20054;-62
2022/03/11 00:47:10;;;;;;;14.93;10.00;;;5.10;99.90;;;;;;5014238;28;20390;-64
2022/03/11 00:49:36;;;;;;;14.80;9.95;;;5.10;99.90;;;;;;5033974;28;20050;-63
2022/03/11 00:52:03;;;;;;;14.93;9.77;;;5.10;99.90;;;;;;5032667;28;20057;-63
2022/03/11 00:54:28;;;;;;;12.68;8.88;;;5.20;99.90;;;;;;5033666;28;20057;-63
2022/03/11 00:56:54;;;;;;;12.65;8.88;;;5.20;99.90;;;;;;5047154;28;20533;-63
2022/03/11 00:59:20;;;;;;;16.25;9.15;;;5.10;99.90;;;;;;5042709;28;20084;-64
2022/03/11 01:01:46;;;;;;;13.10;8.82;;;5.10;99.90;;;;;;5028614;28;20416;-63
2022/03/11 01:04:11;;;;;;;10.23;8.38;;;5.20;99.90;;;;;;5026044;28;20044;-62
2022/03/11 01:06:37;;;;;;;12.93;8.35;;;5.10;99.90;;;;;;5047277;28;20061;-64
2022/03/11 01:09:02;;;;;;;13.73;8.88;;;5.10;99.90;;;;;;5029947;28;20046;-63
2022/03/11 01:11:28;;;;;;;14.57;9.15;;;5.10;99.90;;;;;;5014510;28;20069;-62
2022/03/11 01:13:53;;;;;;;13.48;9.30;;;5.10;99.90;;;;;;5014749;28;20421;-64
2022/03/11 01:16:19;;;;;;;15.52;9.38;;;5.00;99.90;;;;;;5014767;28;20144;-62
2022/03/11 01:18:45;;;;;;;12.25;8.05;;;5.00;99.90;;;;;;5022323;28;20053;-63
2022/03/11 01:21:11;;;;;;;12.88;8.95;;;4.90;99.90;;;;;;5014795;28;20061;-64
2022/03/11 01:23:36;;;;;;;15.07;9.38;;;4.90;99.90;;;;;;5016280;28;20046;-63
2022/03/11 01:26:02;;;;;;;11.45;8.07;;;4.90;99.90;;;;;;5019187;28;20128;-62
2022/03/11 01:28:28;;;;;;;12.98;8.43;;;4.80;99.90;;;;;;5033126;28;20068;-63
2022/03/11 01:30:53;;;;;;;14.35;9.32;;;4.70;99.90;;;;;;5034396;28;20049;-62
2022/03/11 01:33:19;;;;;;;15.32;9.40;;;4.70;99.90;;;;;;5049749;28;20111;-63
2022/03/11 01:35:46;;;;;;;11.90;8.18;;;4.70;99.90;;;;;;5006120;28;20042;-62
2022/03/11 01:38:12;;;;;;;12.25;8.98;;;4.70;99.90;;;;;;5039962;28;20128;-64
2022/03/11 01:40:37;;;;;;;13.57;9.00;;;4.70;99.90;;;;;;5050383;28;20458;-64
2022/03/11 01:43:03;;;;;;;12.35;8.95;;;4.70;99.90;;;;;;5050289;28;20045;-63
2022/03/11 01:45:28;;;;;;;13.82;9.00;;;4.60;99.90;;;;;;5050107;28;20056;-63
2022/03/11 01:47:54;;;;;;;14.30;9.02;;;4.60;99.90;;;;;;5035102;28;20132;-65
2022/03/11 01:50:19;;;;;;;13.43;9.30;;;4.60;99.90;;;;;;5026409;28;20124;-63
2022/03/11 01:52:45;;;;;;;12.55;8.38;;;4.60;99.90;;;;;;5014857;28;20046;-63
2022/03/11 01:55:11;;;;;;;13.13;8.65;;;4.50;99.90;;;;;;5016079;28;20057;-62
2022/03/11 01:57:37;;;;;;;12.32;8.82;;;4.50;99.90;;;;;;5017777;28;20053;-63
2022/03/11 02:00:08;;;;;;;12.52;8.60;;;4.50;99.90;;;;;;5046183;28;20495;-63
2022/03/11 02:02:33;;;;;;;13.40;8.88;;;4.50;99.90;;;;;;5040473;28;20259;-64
2022/03/11 02:04:59;;;;;;;14.05;8.70;;;4.50;99.90;;;;;;5046529;28;20451;-63
2022/03/11 02:07:26;;;;;;;14.90;8.90;;;4.50;99.90;;;;;;5013703;28;20054;-62
2022/03/11 02:09:53;;;;;;;14.27;8.30;;;4.40;99.90;;;;;;5048202;28;20131;-63
2022/03/11 02:12:32;;;;;;;13.88;9.30;;;4.40;99.90;;;;;;5049201;28;20045;-62
2022/03/11 02:15:01;;;;;;;12.30;8.63;;;4.40;99.90;;;;;;5033780;28;20053;-61
2022/03/11 02:17:26;;;;;;;13.18;9.02;;;4.50;99.90;;;;;;5041882;28;20116;-64
2022/03/11 02:19:52;;;;;;;14.45;9.00;;;4.40;99.90;;;;;;5030322;28;20185;-62
2022/03/11 02:22:22;;;;;;;16.73;9.77;;;4.40;99.90;;;;;;5026523;28;20046;-63
2022/03/11 02:24:48;;;;;;;20.08;10.02;;;4.40;99.90;;;;;;5001905;28;20432;-63
2022/03/11 02:27:14;;;;;;;14.20;9.45;;;4.40;99.90;;;;;;5030492;28;20121;-64
2022/03/11 02:29:39;;;;;;;15.75;9.98;;;4.40;99.90;;;;;;5033290;28;20049;-62
2022/03/11 02:32:05;;;;;;;16.02;10.00;;;4.40;99.90;;;;;;5041572;28;20057;-62
2022/03/11 02:34:31;;;;;;;15.48;9.55;;;4.40;99.90;;;;;;5013639;28;20093;-62
2022/03/11 02:36:57;;;;;;;14.38;9.68;;;4.40;99.90;;;;;;5040587;28;20077;-62
2022/03/11 02:39:23;;;;;;;14.85;9.93;;;4.40;99.90;;;;;;5016668;28;20053;-64
2022/03/11 02:41:51;;;;;;;13.27;9.68;;;4.30;99.90;;;;;;5032113;28;20500;-62
2022/03/11 02:44:17;;;;;;;16.60;10.57;;;4.30;99.90;;;;;;5049374;28;20091;-62
2022/03/11 02:46:43;;;;;;;16.35;10.38;;;4.30;99.90;;;;;;5044425;28;20448;-63
2022/03/11 02:49:09;;;;;;;17.70;10.63;;;4.30;99.90;;;;;;5012941;28;20050;-63
2022/03/11 02:51:34;;;;;;;15.70;9.95;;;4.30;99.90;;;;;;5022958;28;20047;-62
2022/03/11 02:54:00;;;;;;;16.23;10.80;;;4.30;99.90;;;;;;5048865;28;20049;-63
2022/03/11 02:56:25;;;;;;;15.85;10.15;;;4.10;99.90;;;;;;5048924;28;20091;-63
2022/03/11 02:58:51;;;;;;;14.02;10.00;;;4.10;99.90;;;;;;5035491;28;20058;-64
2022/03/11 03:01:17;;;;;;;16.60;10.45;;;4.20;99.90;;;;;;5019004;28;20062;-63
2022/03/11 03:03:42;;;;;;;15.95;10.98;;;4.10;99.90;;;;;;5032661;28;20112;-64
2022/03/11 03:06:08;;;;;;;15.60;11.25;;;4.00;99.90;;;;;;5027756;28;20057;-63
2022/03/11 03:08:34;;;;;;;18.17;10.95;;;4.00;99.90;;;;;;5034075;28;20064;-63
2022/03/11 03:10:59;;;;;;;18.25;11.63;;;4.10;99.90;;;;;;5049013;28;20402;-64
2022/03/11 03:13:25;;;;;;;16.25;10.93;;;4.00;99.90;;;;;;5032834;28;20410;-62
2022/03/11 03:15:51;;;;;;;18.33;11.25;;;3.90;99.90;;;;;;5029563;28;20079;-64
2022/03/11 03:18:17;;;;;;;19.65;12.07;;;3.90;99.90;;;;;;5012818;28;20084;-62
2022/03/11 03:20:42;;;;;;;16.73;11.38;;;4.00;99.90;;;;;;5012159;28;20073;-62
2022/03/11 03:23:08;;;;;;;19.85;10.77;;;4.00;99.90;;;;;;5012418;28;20042;-62
2022/03/11 03:25:34;;;;;;;17.70;11.65;;;4.00;99.90;;;;;;5013006;28;20053;-63
2022/03/11 03:27:59;;;;;;;20.70;11.98;;;4.00;99.90;;;;;;5019288;28;20490;-63
2022/03/11 03:30:25;;;;;;;19.65;11.48;;;4.00;99.90;;;;;;5048345;28;20056;-63
2022/03/11 03:32:50;;;;;;;16.98;11.30;;;4.00;99.90;;;;;;5031634;28;20547;-64
2022/03/11 03:35:16;;;;;;;16.05;11.20;;;3.90;99.90;;;;;;5031957;28;20092;-64
2022/03/11 03:37:41;;;;;;;21.48;12.23;;;3.90;99.90;;;;;;5014302;28;20076;-63
2022/03/11 03:40:08;;;;;;;20.02;12.18;;;3.80;99.90;;;;;;5012658;28;20053;-64
2022/03/11 03:42:34;;;;;;;22.27;12.48;;;3.80;99.90;;;;;;5012676;28;20124;-63
2022/03/11 03:45:00;;;;;;;18.35;12.27;;;3.80;99.90;;;;;;5013142;28;20514;-64
2022/03/11 03:47:25;;;;;;;19.27;12.90;;;3.80;99.90;;;;;;5012173;28;20045;-62
2022/03/11 03:49:51;;;;;;;19.35;11.80;;;3.70;99.90;;;;;;5012527;28;20482;-63
2022/03/11 03:52:17;;;;;;;24.70;12.88;;;3.80;99.90;;;;;;5020756;28;20085;-62
2022/03/11 03:54:44;;;;;;;19.30;12.32;;;3.70;99.90;;;;;;5048574;28;20045;-64
2022/03/11 03:57:10;;;;;;;19.27;12.15;;;3.70;99.90;;;;;;5014536;28;20041;-64
2022/03/11 03:59:35;;;;;;;20.17;13.43;;;3.70;99.90;;;;;;5012341;28;20060;-62
2022/03/11 04:02:02;;;;;;;21.00;13.27;;;3.60;99.90;;;;;;5011967;28;20050;-64
2022/03/11 04:04:27;;;;;;;19.15;13.05;;;3.60;99.90;;;;;;5013190;28;20050;-63
2022/03/11 04:06:53;;;;;;;23.25;13.50;;;3.50;99.90;;;;;;5024830;28;20482;-63
2022/03/11 04:09:19;;;;;;;22.15;13.18;;;3.60;99.90;;;;;;5031255;28;20121;-63
2022/03/11 04:11:44;;;;;;;21.75;13.75;;;3.60;99.90;;;;;;5030582;28;20065;-62
2022/03/11 04:14:11;;;;;;;20.30;13.05;;;3.50;99.90;;;;;;5028903;28;20140;-63
2022/03/11 04:16:36;;;;;;;21.77;13.57;;;3.50;99.90;;;;;;5029447;28;20081;-63
2022/03/11 04:19:02;;;;;;;21.00;13.48;;;3.50;99.90;;;;;;5012228;28;20080;-63
2022/03/11 04:21:27;;;;;;;24.70;15.50;;;3.40;99.90;;;;;;5011455;28;20061;-64
2022/03/11 04:23:53;;;;;;;24.98;14.77;;;3.50;99.90;;;;;;5012494;28;20057;-63
2022/03/11 04:26:19;;;;;;;22.73;14.18;;;3.40;99.90;;;;;;5045815;28;20050;-63
2022/03/11 04:28:45;;;;;;;23.42;14.60;;;3.40;99.90;;;;;;5041847;28;20081;-63
2022/03/11 04:31:11;;;;;;;22.95;13.73;;;3.40;99.90;;;;;;5011330;28;20080;-64
2022/03/11 04:33:38;;;;;;;21.83;13.73;;;3.40;99.90;;;;;;4996537;28;20050;-63
2022/03/11 04:36:06;;;;;;;24.25;15.13;;;3.40;99.90;;;;;;5011817;28;20072;-63
2022/03/11 04:38:32;;;;;;;24.77;14.98;;;3.30;99.90;;;;;;5016086;28;20054;-62
2022/03/11 04:40:58;;;;;;;23.55;15.07;;;3.40;99.90;;;;;;5041737;28;20128;-62
2022/03/11 04:43:24;;;;;;;24.88;15.40;;;3.30;99.90;;;;;;5041738;28;20053;-61
2022/03/11 04:45:50;;;;;;;28.92;15.35;;;3.30;99.90;;;;;;5036320;28;20053;-64
2022/03/11 04:48:16;;;;;;;24.48;16.10;;;3.20;99.90;;;;;;5051582;28;20445;-62
2022/03/11 04:50:41;;;;;;;26.30;15.60;;;3.20;99.90;;;;;;5046512;28;20046;-63
2022/03/11 04:53:07;;;;;;;24.92;15.63;;;3.30;99.90;;;;;;5024747;28;20058;-63
2022/03/11 04:55:33;;;;;;;26.42;16.25;;;3.20;99.90;;;;;;5015547;28;20045;-62
2022/03/11 04:57:58;;;;;;;22.73;14.60;;;3.20;99.90;;;;;;5013447;28;20049;-64
2022/03/11 05:00:25;;;;;;;26.05;16.35;;;3.20;99.90;;;;;;5016448;28;20057;-62
2022/03/11 05:02:51;;;;;;;26.65;16.60;;;3.20;99.90;;;;;;5014999;28;20048;-63
2022/03/11 05:05:16;;;;;;;25.10;15.52;;;3.20;99.90;;;;;;5015390;28;20061;-63
2022/03/11 05:07:42;;;;;;;25.20;15.90;;;3.20;99.90;;;;;;5030452;28;20054;-63
2022/03/11 05:10:10;;;;;;;24.55;16.45;;;3.10;99.90;;;;;;5017182;28;20134;-62
2022/03/11 05:12:37;;;;;;;25.73;16.40;;;3.10;99.90;;;;;;5029201;28;20503;-64
2022/03/11 05:15:04;;;;;;;24.38;15.85;;;3.00;99.90;;;;;;5051535;28;20131;-62
2022/03/11 05:17:30;;;;;;;28.15;16.63;;;3.00;99.90;;;;;;5046724;28;20125;-62
2022/03/11 05:19:56;;;;;;;25.48;16.55;;;3.00;99.90;;;;;;5015091;28;20125;-63
2022/03/11 05:22:21;;;;;;;29.10;16.98;;;2.90;99.90;;;;;;5014720;28;20052;-64
2022/03/11 05:24:48;;;;;;;24.83;15.90;;;2.90;99.90;;;;;;5015947;28;20061;-63
2022/03/11 05:27:13;;;;;;;26.30;16.58;;;2.90;99.90;;;;;;5022785;28;20143;-63
2022/03/11 05:29:40;;;;;;;27.02;15.85;;;2.80;99.90;;;;;;5016340;28;20105;-63
2022/03/11 05:32:06;;;;;;;24.92;16.45;;;2.80;99.90;;;;;;5015942;28;20383;-63
2022/03/11 05:34:33;;;;;;;28.15;16.52;;;2.80;99.90;;;;;;5016002;28;20124;-62
2022/03/11 05:36:59;;;;;;;29.75;16.00;;;2.70;99.90;;;;;;5023478;28;20046;-63
2022/03/11 05:39:24;;;;;;;27.85;17.90;;;2.80;99.90;;;;;;5037932;28;20073;-62
2022/03/11 05:41:50;;;;;;;26.83;16.92;;;2.80;99.90;;;;;;5029300;28;20045;-62
2022/03/11 05:44:19;;;;;;;27.80;17.08;;;2.70;99.90;;;;;;5031015;28;20517;-63
2022/03/11 05:46:45;;;;;;;26.25;16.20;;;2.70;99.90;;;;;;5021897;28;20053;-63
2022/03/11 05:49:12;;;;;;;26.30;17.08;;;2.70;99.90;;;;;;5018356;28;20045;-61
2022/03/11 05:51:37;;;;;;;26.77;16.95;;;2.60;99.90;;;;;;5025284;28;20038;-64
2022/03/11 05:54:05;;;;;;;27.48;16.30;;;2.60;99.90;;;;;;5041236;28;20099;-65
2022/03/11 05:56:32;;;;;;;26.70;16.98;;;2.60;99.90;;;;;;5041515;28;20065;-63
2022/03/11 05:58:58;;;;;;;28.10;17.80;;;2.60;99.90;;;;;;5027480;28;20060;-64
2022/03/11 06:01:24;;;;;;;26.73;17.02;;;2.60;99.90;;;;;;5043231;28;20077;-63
2022/03/11 06:03:49;;;;;;;28.25;18.58;;;2.50;99.90;;;;;;5050262;28;20175;-62
2022/03/11 06:06:15;;;;;;;27.35;16.70;;;2.50;99.90;;;;;;5037509;28;20483;-62
2022/03/11 06:08:42;;;;;;;28.15;17.77;;;2.50;99.90;;;;;;5018978;28;20049;-63
2022/03/11 06:11:09;;;;;;;32.13;17.80;;;2.60;99.90;;;;;;5013825;28;20466;-64
2022/03/11 06:13:35;;;;;;;26.67;17.52;;;2.60;99.90;;;;;;5013617;28;20057;-63
2022/03/11 06:16:01;;;;;;;29.13;18.75;;;2.60;99.90;;;;;;5000742;28;20129;-63
2022/03/11 06:18:26;;;;;;;29.83;18.70;;;2.60;99.90;;;;;;5029170;28;20128;-64
2022/03/11 06:20:52;;;;;;;31.42;18.75;;;2.60;99.90;;;;;;5013735;28;20050;-62
2022/03/11 06:23:18;;;;;;;28.90;17.77;;;2.60;99.90;;;;;;5014412;28;20441;-62
2022/03/11 06:25:43;;;;;;;26.38;17.90;;;2.60;99.90;;;;;;5013630;28;20089;-63
2022/03/11 06:28:09;;;;;;;28.70;18.73;;;2.60;99.90;;;;;;5016182;28;20053;-63
2022/03/11 06:30:37;;;;;;;28.15;18.00;;;2.60;99.90;;;;;;5034345;28;20088;-63
2022/03/11 06:33:02;;;;;;;27.63;17.20;;;2.60;99.90;;;;;;5015784;28;20050;-63
2022/03/11 06:35:28;;;;;;;29.45;18.58;;;2.60;99.90;;;;;;5050175;28;20159;-62
2022/03/11 06:37:54;;;;;;;29.05;17.27;;;2.60;99.90;;;;;;5046394;28;20049;-62
2022/03/11 06:40:20;;;;;;;26.25;17.48;;;2.70;99.90;;;;;;5016326;28;20049;-62
2022/03/11 06:42:48;;;;;;;26.40;17.35;;;2.70;99.90;;;;;;5047081;28;20045;-64
2022/03/11 06:45:15;;;;;;;30.45;18.92;;;2.60;99.90;;;;;;5040085;28;20065;-63
2022/03/11 06:47:41;;;;;;;29.08;18.05;;;2.70;99.90;;;;;;5031198;28;20474;-63
2022/03/11 06:50:08;;;;;;;27.52;17.50;;;2.70;99.90;;;;;;5034567;28;20394;-64
2022/03/11 06:52:35;;;;;;;27.33;16.88;;;2.70;99.90;;;;;;5032116;28;20093;-61
2022/03/11 06:55:01;;;;;;;31.35;17.60;;;2.80;99.90;;;;;;5031832;28;20073;-63
2022/03/11 06:57:27;;;;;;;32.13;18.33;;;2.90;99.90;;;;;;5023139;28;20076;-62
2022/03/11 06:59:53;;;;;;;27.35;17.58;;;2.90;99.90;;;;;;5036600;28;20414;-63
2022/03/11 07:02:18;;;;;;;28.42;17.75;;;3.00;99.90;;;;;;5016563;28;20080;-65
2022/03/11 07:04:45;;;;;;;27.05;17.15;;;3.00;99.90;;;;;;5019477;28;20053;-62
2022/03/11 07:07:12;;;;;;;26.88;16.70;;;3.10;99.90;;;;;;5022988;28;20057;-64
2022/03/11 07:09:38;;;;;;;26.90;17.48;;;3.20;99.90;;;;;;5025263;28;20046;-62
2022/03/11 07:12:04;;;;;;;29.30;17.98;;;3.20;99.90;;;;;;5026498;28;20155;-63
2022/03/11 07:14:35;;;;;;;26.40;16.20;;;3.30;99.90;;;;;;5039276;28;20100;-63
2022/03/11 07:17:02;;;;;;;27.38;16.63;;;3.40;99.90;;;;;;5024222;28;20050;-62
2022/03/11 07:19:28;;;;;;;30.33;17.52;;;3.40;99.90;;;;;;5028225;28;20099;-63
2022/03/11 07:21:54;;;;;;;28.75;17.35;;;3.50;99.90;;;;;;5048546;28;20049;-63
2022/03/11 07:24:20;;;;;;;27.05;17.75;;;3.50;99.90;;;;;;5034461;28;20068;-62
2022/03/11 07:26:46;;;;;;;29.63;17.20;;;3.70;99.90;;;;;;5024203;28;20049;-64
2022/03/11 07:29:11;;;;;;;26.50;16.48;;;3.70;99.90;;;;;;5031505;28;20049;-63
2022/03/11 07:31:37;;;;;;;26.58;16.85;;;3.80;99.90;;;;;;5033023;28;20050;-62
2022/03/11 07:34:02;;;;;;;25.88;16.45;;;3.90;99.90;;;;;;5031228;28;20130;-62
2022/03/11 07:36:28;;;;;;;25.73;16.98;;;4.00;99.90;;;;;;5031657;28;20410;-64
2022/03/11 07:38:54;;;;;;;26.88;16.30;;;4.10;99.90;;;;;;5034468;28;20057;-62
2022/03/11 07:41:20;;;;;;;27.33;16.85;;;4.20;99.90;;;;;;5031246;28;20486;-63
2022/03/11 07:43:46;;;;;;;24.10;15.82;;;4.20;99.90;;;;;;5031185;28;20390;-62
2022/03/11 07:46:14;;;;;;;27.25;16.55;;;4.30;99.90;;;;;;5032905;28;20053;-61
2022/03/11 07:48:41;;;;;;;27.52;16.65;;;4.40;99.90;;;;;;5021171;28;20050;-63
2022/03/11 07:51:08;;;;;;;27.35;17.90;;;4.40;99.90;;;;;;5013064;28;20076;-62
2022/03/11 07:53:35;;;;;;;25.10;15.93;;;4.50;99.90;;;;;;5012439;28;20053;-63
2022/03/11 07:56:01;;;;;;;23.55;15.20;;;4.60;99.90;;;;;;5024730;28;20049;-63
2022/03/11 07:58:26;;;;;;;22.63;15.45;;;4.70;99.90;;;;;;5030774;28;20076;-63
2022/03/11 08:00:52;;;;;;;25.90;16.83;;;4.70;99.90;;;;;;5031319;28;20053;-64
2022/03/11 08:03:18;;;;;;;26.65;16.33;;;4.80;99.90;;;;;;5029522;28;20103;-62
2022/03/11 08:05:44;;;;;;;22.75;15.80;;;4.80;99.90;;;;;;5014815;28;20041;-63
2022/03/11 08:08:10;;;;;;;27.88;16.88;;;4.90;99.90;;;;;;5031617;28;20060;-61
2022/03/11 08:10:37;;;;;;;25.08;16.60;;;5.00;99.90;;;;;;5031169;28;20481;-65
2022/03/11 08:13:06;;;;;;;26.23;16.88;;;5.00;99.90;;;;;;5031488;28;20049;-65
2022/03/11 08:15:35;;;;;;;25.92;16.55;;;5.10;99.90;;;;;;5029460;28;20414;-63
2022/03/11 08:18:02;;;;;;;24.17;16.52;;;5.20;99.90;;;;;;5028015;28;20061;-63
2022/03/11 08:20:28;;;;;;;26.98;15.75;;;5.30;99.90;;;;;;5008518;28;21260;-63
2022/03/11 08:22:54;;;;;;;25.75;16.65;;;5.40;99.90;;;;;;5010623;28;20140;-65
2022/03/11 08:25:20;;;;;;;27.23;16.85;;;5.40;99.90;;;;;;5023959;28;20064;-64
2022/03/11 08:27:47;;;;;;;26.30;15.55;;;5.50;99.90;;;;;;5031401;28;20064;-63
2022/03/11 08:30:12;;;;;;;26.98;16.58;;;5.60;99.90;;;;;;5028973;28;20060;-64
2022/03/11 08:32:40;;;;;;;25.55;16.02;;;5.70;99.90;;;;;;5031879;28;20050;-65
2022/03/11 08:35:07;;;;;;;29.10;17.40;;;5.70;99.90;;;;;;5029569;28;20498;-63
2022/03/11 08:37:34;;;;;;;25.20;16.90;;;5.90;99.90;;;;;;5030599;28;20049;-64
2022/03/11 08:39:59;;;;;;;27.58;17.40;;;5.90;99.90;;;;;;5014195;28;20045;-63
2022/03/11 08:42:25;;;;;;;26.17;16.65;;;6.00;99.90;;;;;;5032984;28;20129;-63
2022/03/11 08:44:50;;;;;;;26.42;18.20;;;6.00;99.90;;;;;;5032087;28;20449;-64
2022/03/11 08:47:16;;;;;;;26.75;17.80;;;6.10;99.90;;;;;;5032027;28;20049;-62
2022/03/11 08:49:42;;;;;;;25.10;18.08;;;6.20;99.90;;;;;;5031604;28;20064;-64
2022/03/11 08:52:08;;;;;;;26.98;18.20;;;6.30;99.90;;;;;;5032315;28;20136;-63
2022/03/11 08:54:34;;;;;;;25.85;17.20;;;6.30;99.90;;;;;;5030766;28;20049;-63
2022/03/11 08:56:59;;;;;;;24.65;17.45;;;6.40;99.90;;;;;;5030963;28;20052;-62
2022/03/11 08:59:26;;;;;;;25.60;17.15;;;6.50;99.90;;;;;;5031248;28;20486;-64
2022/03/11 09:01:52;;;;;;;28.25;17.83;;;6.50;99.90;;;;;;5032186;28;20057;-64
2022/03/11 09:04:19;;;;;;;30.48;18.05;;;6.60;99.90;;;;;;5032340;28;20199;-64
2022/03/11 09:06:45;;;;;;;24.77;17.50;;;6.70;99.90;;;;;;5030776;28;20061;-63
2022/03/11 09:09:10;;;;;;;27.80;18.65;;;6.80;99.90;;;;;;5032297;28;20486;-64
2022/03/11 09:11:36;;;;;;;26.88;17.92;;;6.90;99.90;;;;;;5030524;28;20068;-63
2022/03/11 09:14:02;;;;;;;24.92;17.02;;;7.00;99.90;;;;;;5013529;28;20068;-64
2022/03/11 09:16:28;;;;;;;24.92;18.45;;;7.10;99.90;;;;;;5030015;28;20068;-65
2022/03/11 09:18:56;;;;;;;25.15;17.73;;;7.20;99.90;;;;;;5010968;28;20101;-66
2022/03/11 09:21:22;;;;;;;29.75;18.83;;;7.30;99.90;;;;;;5023967;28;20057;-64
2022/03/11 09:23:48;;;;;;;24.33;17.98;;;7.30;99.90;;;;;;5046532;28;20059;-66
2022/03/11 09:26:14;;;;;;;28.02;18.88;;;7.40;99.90;;;;;;5028972;28;20060;-65
2022/03/11 09:28:40;;;;;;;23.48;16.77;;;7.40;99.90;;;;;;5025390;28;20406;-64
2022/03/11 09:31:08;;;;;;;24.33;17.55;;;7.50;99.90;;;;;;5032648;28;20064;-64
2022/03/11 09:33:38;;;;;;;23.92;17.40;;;7.60;99.90;;;;;;5049381;28;20389;-64
2022/03/11 09:36:05;;;;;;;27.55;18.27;;;7.60;94.20;;;;;;5035011;28;20049;-64
2022/03/11 09:38:31;;;;;;;27.02;18.50;;;7.70;97.50;;;;;;5032110;28;20054;-64
2022/03/11 09:40:58;;;;;;;28.60;18.27;;;7.70;95.80;;;;;;5031670;28;20058;-64
2022/03/11 09:43:25;;;;;;;27.52;19.00;;;7.80;96.30;;;;;;5032871;28;22007;-65
2022/03/11 09:45:51;;;;;;;24.58;17.48;;;8.10;95.30;;;;;;5032753;28;20053;-64
2022/03/11 09:48:17;;;;;;;26.95;18.13;;;7.90;90.20;;;;;;5049978;28;20048;-64
2022/03/11 09:50:43;;;;;;;25.05;19.23;;;7.90;91.30;;;;;;5033508;28;20045;-62
2022/03/11 09:53:12;;;;;;;25.17;18.02;;;8.00;93.60;;;;;;5033479;28;20405;-64
2022/03/11 09:55:43;;;;;;;24.13;18.13;;;8.20;87.10;;;;;;5033428;28;20425;-65
2022/03/11 09:58:10;;;;;;;23.42;18.02;;;8.20;90.70;;;;;;5015629;28;20061;-63
2022/03/11 10:00:35;;;;;;;27.42;19.17;;;8.20;88.90;;;;;;5044137;28;20073;-64
2022/03/11 10:03:01;;;;;;;27.88;18.60;;;8.20;81.60;;;;;;5029352;28;20131;-64
2022/03/11 10:05:46;;;;;;;26.83;17.45;;;8.30;82.50;;;;;;4997352;28;20045;-63
2022/03/11 10:08:12;;;;;;;25.52;18.05;;;8.40;79.30;;;;;;5014881;28;20050;-63
2022/03/11 10:10:37;;;;;;;22.65;17.40;;;8.50;83.40;;;;;;5014350;28;20054;-65
2022/03/11 10:13:07;;;;;;;25.15;18.35;;;8.60;82.70;;;;;;5014022;28;20069;-63
2022/03/11 10:15:32;;;;;;;24.67;18.98;;;8.60;78.10;;;;;;5030716;28;20143;-66
2022/03/11 10:18:02;;;;;;;23.13;17.88;;;8.70;76.90;;;;;;5031960;28;20509;-64
2022/03/11 10:20:29;;;;;;;27.00;19.02;;;8.70;73.50;;;;;;5049523;28;20987;-65
2022/03/11 10:22:57;;;;;;;25.27;18.10;;;8.80;72.90;;;;;;5032791;28;20493;-64
2022/03/11 10:25:25;;;;;;;26.17;18.90;;;8.90;71.60;;;;;;5033921;28;20056;-64
2022/03/11 10:28:03;;;;;;;30.48;19.33;;;8.90;71.60;;;;;;5046515;28;20148;-64
2022/03/11 10:30:31;;;;;;;23.80;17.40;;;9.00;69.90;;;;;;5030243;28;20111;-64
2022/03/11 10:32:58;;;;;;;27.00;19.45;;;9.10;72.60;;;;;;5032457;28;20128;-64
2022/03/11 10:35:32;;;;;;;29.40;18.95;;;9.20;70.50;;;;;;5032278;28;20049;-63
2022/03/11 10:38:04;;;;;;;26.70;17.83;;;9.20;69.50;;;;;;5031421;28;20053;-64
2022/03/11 10:40:34;;;;;;;25.98;19.15;;;9.30;67.40;;;;;;5032138;28;20045;-64
2022/03/11 10:43:17;;;;;;;26.08;18.80;;;9.30;67.90;;;;;;5046260;28;20053;-64
2022/03/11 10:45:47;;;;;;;25.17;17.98;;;9.40;68.50;;;;;;5028599;28;20092;-64
2022/03/11 10:48:14;;;;;;;25.02;18.10;;;9.50;67.00;;;;;;5035783;28;20061;-64
2022/03/11 10:50:40;;;;;;;24.85;18.50;;;9.50;67.40;;;;;;5017324;28;20555;-64
2022/03/11 10:53:07;;;;;;;27.00;19.10;;;9.60;67.00;;;;;;5031258;28;20049;-64
2022/03/11 10:55:33;;;;;;;26.17;18.58;;;9.60;67.10;;;;;;5048277;28;20075;-64
2022/03/11 10:58:02;;;;;;;26.73;18.08;;;9.70;66.40;;;;;;5038645;28;20175;-64
2022/03/11 11:00:33;;;;;;;25.45;18.90;;;9.80;65.90;;;;;;5018017;28;20057;-64
2022/03/11 11:03:03;;;;;;;26.70;17.25;;;9.60;65.80;;;;;;5033155;28;20057;-64
2022/03/11 11:05:30;;;;;;;26.92;17.80;;;9.90;65.10;;;;;;5032261;28;20057;-64
2022/03/11 11:07:57;;;;;;;22.85;16.60;;;10.00;66.80;;;;;;5032919;28;20394;-65
2022/03/11 11:10:25;;;;;;;24.52;17.75;;;10.20;66.90;;;;;;5033234;28;20042;-64
2022/03/11 11:12:51;;;;;;;23.92;17.73;;;10.30;64.80;;;;;;5033300;28;20049;-64
2022/03/11 11:15:18;;;;;;;24.48;17.65;;;10.40;65.30;;;;;;5032538;28;20057;-65
2022/03/11 11:17:47;;;;;;;22.92;14.88;;;10.40;63.40;;;;;;5033049;28;20057;-65
2022/03/11 11:20:23;;;;;;;24.95;17.42;;;10.40;62.30;;;;;;5023774;28;20427;-63
2022/03/11 11:22:52;;;;;;;22.00;15.27;;;10.60;62.50;;;;;;5029090;28;20050;-64
2022/03/11 11:25:20;;;;;;;23.55;16.63;;;10.60;60.70;;;;;;5039816;28;20061;-65
2022/03/11 11:27:47;;;;;;;20.58;15.00;;;10.70;60.40;;;;;;5023825;28;20144;-65
2022/03/11 11:30:18;;;;;;;21.05;15.77;;;10.70;60.60;;;;;;5033143;28;20120;-65
2022/03/11 11:32:44;;;;;;;20.60;15.50;;;10.80;60.80;;;;;;5031958;28;20053;-65
2022/03/11 11:35:30;;;;;;;23.27;15.85;;;10.90;61.00;;;;;;5032775;28;20456;-63
2022/03/11 11:38:02;;;;;;;20.52;15.50;;;10.90;56.80;;;;;;5028733;28;20057;-67
2022/03/11 11:40:34;;;;;;;20.88;14.38;;;10.90;58.80;;;;;;5032285;28;20053;-63
2022/03/11 11:43:13;;;;;;;21.95;15.40;;;10.90;57.50;;;;;;5030398;28;20045;-66
2022/03/11 11:45:49;;;;;;;22.77;15.95;;;11.00;58.20;;;;;;5047551;28;20049;-66
2022/03/11 11:48:33;;;;;;;22.33;15.45;;;11.00;58.50;;;;;;5024122;28;20046;-64
2022/03/11 11:51:00;;;;;;;20.42;15.35;;;11.10;57.40;;;;;;5012990;28;20060;-63
2022/03/11 11:53:33;;;;;;;19.38;15.00;;;11.10;57.50;;;;;;5045570;28;20068;-64
2022/03/11 11:56:00;;;;;;;20.80;15.32;;;11.10;56.50;;;;;;5047852;28;20069;-64
2022/03/11 11:58:26;;;;;;;21.70;15.20;;;11.20;56.50;;;;;;5028966;28;20133;-63
2022/03/11 12:00:55;;;;;;;22.63;15.23;;;11.20;57.60;;;;;;5031574;28;20482;-64
2022/03/11 12:03:48;;;;;;;21.58;15.38;;;11.00;56.60;;;;;;5030873;28;20473;-64
2022/03/11 12:06:55;;;;;;;19.30;14.88;;;11.40;55.70;;;;;;5027375;28;20508;-64
2022/03/11 12:09:39;;;;;;;21.73;15.32;;;11.40;55.20;;;;;;5046238;28;20050;-65
2022/03/11 12:12:05;;;;;;;23.42;15.13;;;11.50;55.30;;;;;;5030965;28;20095;-64
2022/03/11 12:14:32;;;;;;;22.88;15.30;;;11.50;56.10;;;;;;5031163;28;20421;-65
2022/03/11 12:17:07;;;;;;;22.60;15.27;;;11.60;56.80;;;;;;5031214;28;20061;-65
2022/03/11 12:19:40;;;;;;;22.23;15.63;;;11.70;56.00;;;;;;5031200;28;20493;-64
2022/03/11 12:22:29;;;;;;;19.83;15.43;;;11.80;55.70;;;;;;5030774;28;20053;-64
2022/03/11 12:25:05;;;;;;;20.80;14.90;;;11.90;54.60;;;;;;5047518;28;20450;-63
2022/03/11 12:28:08;;;;;;;18.83;14.18;;;11.90;53.80;;;;;;5045658;28;20057;-65
2022/03/11 12:30:34;;;;;;;;;;;11.90;53.80;;;;;;5031194;28;20057;-65
2022/03/11 12:33:13;;;;;;;19.98;14.45;;;11.90;52.70;;;;;;5031179;28;19921;-65
2022/03/11 12:35:39;;;;;;;23.00;14.65;;;12.00;55.10;;;;;;5032026;28;20164;-65
2022/03/11 12:38:10;;;;;;;21.60;14.35;;;12.10;54.80;;;;;;5031093;28;20129;-64